Center Rutland, Vermont
Current Conditions -  °F | °C
As of 12:15 PM on Sunday 21 Dec 2014 (Local Time) from KRUT Reporting Station
Overcast Overcast  
Wind Chill: 19°   Ceiling: 3800
Heat Index: 25°   Visibility: 3mi
Dew Point: 21°   Wind: 5mph
Humidity: 86%   Direction: 10°N
Pressure: 30.3"   Gusts: NA
Location:  43.6°N, 73.01°W
Report Text: KRUT 211715Z 01004KT 3SM BKN038 OVC045 M04/M06 A3030 RMK AO1
Loading
Personal Weather Stations






























Interactive Weather Map New forecast layout! Learn more

10-Day Weather Forecast

Advertisements
Track Severe Weather on mobile